Terminal Aerodrome Forecast
Issued by NWS Raleigh/Durham, NC

Home | Current Version | Previous Version | Text Only | Print | Product List | Glossary On
Versions: 1 2 3 4 5 6 7 8 9 10 11 12 13 14 15 16 17 18 19 20 21 22 23 24 25 26 27 28 29 30
000
FTUS42 KRAH 012020 AAA
TAFGSO
TAF AMD
KGSO 012020Z 0120/0218 23005KT P6SM SCT020 SCT035
      TEMPO 0123/0202 VRB16G28KT 3SM -TSRA BR SCT012 BKN024CB
     FM020500 20006KT P6SM VCSH BKN035
     FM021000 22005KT P6SM OVC008
     FM021400 23008KT P6SM SCT025 SCT250=

USA.gov is the U.S. government's official web portal to all federal, state and local government web resources and services.